Dory — WDJ3671 — position and weather

sailwx.info

Track history (hours):
 
Tides and Currents Weather Stations Pressure Air Temp Water Temp Dewpoint Dewpoint Depression Visibility Wind Speed Wind Dir Waves Ship Positions

Dory

Owner: Greater NY Marine Transportation LLC, SYOSSET, NY. More information available from US FCC via Universal Licensing System and Coast Guard Vessel Documentation Center.

Last reported at 2018-Jun-25 04:49 UTC. Time now 2018-Jul-19 19:32 UTC.
Position N 40°40' W 074°01'.
Warning: this ship's position is 24 days out of date.

Length 24 m; draft 2.4 m.

Type: Tug. MMSI: 367605380.

Date/timePositionNaut miles runAvg speedWind from/ knotsBaromVisibWave heightAir tempDewpointWater temp
2018-Jun-25 04:49N 40°40' W 074°01'0 0.7
2018-Jun-25 04:30N 40°40' W 074°01'3 6.9
2018-Jun-25 04:00N 40°43' W 074°01'3 1.4
2018-Jun-25 01:52N 40°46' W 074°00'3 8.9
2018-Jun-25 01:30N 40°43' W 074°01'3 5.9
2018-Jun-25 00:59N 40°40' W 074°01'0 0.0
2018-Jun-25 00:29N 40°40' W 074°01'0 0.0
2018-Jun-25 00:00N 40°40' W 074°01'0 0.5
2018-Jun-24 23:30N 40°40' W 074°01'0 0.0
2018-Jun-24 23:00N 40°40' W 074°01'0 0.0
2018-Jun-24 22:30N 40°40' W 074°01'0 0.0
2018-Jun-24 22:00N 40°40' W 074°01'0 0.0
2018-Jun-24 21:30N 40°40' W 074°01'0 0.0
2018-Jun-24 21:00N 40°40' W 074°01'0 0.0
2018-Jun-24 20:30N 40°40' W 074°01'0 0.0
2018-Jun-24 20:00N 40°40' W 074°01'0 0.0
2018-Jun-24 19:30N 40°40' W 074°01'0 0.0
2018-Jun-24 19:00N 40°40' W 074°01'0 0.0
2018-Jun-24 18:30N 40°40' W 074°01'0 0.0
2018-Jun-24 18:00N 40°40' W 074°01'0 0.0
2018-Jun-24 17:30N 40°40' W 074°01'0 0.0
2018-Jun-24 16:54N 40°40' W 074°01'0 0.0
2018-Jun-24 16:30N 40°40' W 074°01'0 0.0
2018-Jun-24 16:00N 40°40' W 074°01'0 0.0
2018-Jun-24 15:27N 40°40' W 074°01'  
2018-Jun-22 03:02N 40°40' W 074°01'0 0.0
2018-Jun-22 02:56N 40°40' W 074°01'0 0.0
2018-Jun-22 02:26N 40°40' W 074°01'0 0.0
2018-Jun-22 01:59N 40°40' W 074°01'0 0.0
2018-Jun-22 01:29N 40°40' W 074°01'0 0.0
2018-Jun-22 00:59N 40°40' W 074°01'0 0.0
2018-Jun-22 00:29N 40°40' W 074°01'0 0.0
2018-Jun-21 23:56N 40°40' W 074°01'0 0.0
2018-Jun-21 23:26N 40°40' W 074°01'0 0.0
2018-Jun-21 22:56N 40°40' W 074°01'0 0.0
2018-Jun-21 22:29N 40°40' W 074°01'0 0.0
2018-Jun-21 21:56N 40°40' W 074°01'0 0.0
2018-Jun-21 21:29N 40°40' W 074°01'0 0.0
2018-Jun-21 20:59N 40°40' W 074°01'0 0.0
2018-Jun-21 20:29N 40°40' W 074°01'0 0.0
2018-Jun-21 19:59N 40°40' W 074°01'0 0.0
2018-Jun-21 19:29N 40°40' W 074°01'1 1.2
2018-Jun-21 19:00N 40°40' W 074°01'4 7.1
2018-Jun-21 18:30N 40°39' W 074°06'4 6.5
2018-Jun-21 17:56N 40°39' W 074°10'0 0.0
2018-Jun-21 01:12N 40°39' W 074°10'2 8.9
2018-Jun-21 00:59N 40°39' W 074°08'4 8.8
2018-Jun-21 00:30N 40°40' W 074°03'3 6.0
2018-Jun-21 00:00N 40°42' W 073°60'4 0.2
2018-Jun-20 07:46N 40°46' W 073°57'2 5.9
2018-Jun-20 07:28N 40°44' W 073°58'2 4.8
2018-Jun-20 07:00N 40°42' W 073°60'3 6.8
2018-Jun-20 06:30N 40°40' W 074°03'5 6.0
2018-Jun-20 05:45N 40°39' W 074°09'1 0.3
2018-Jun-20 04:02N 40°39' W 074°09'0 0.2
2018-Jun-20 03:59N 40°39' W 074°09'1 1.3
2018-Jun-20 03:29N 40°38' W 074°09'3 6.6
2018-Jun-20 03:00N 40°39' W 074°05'3 6.6
2018-Jun-20 02:29N 40°40' W 074°01'0 0.0
2018-Jun-20 01:59N 40°40' W 074°01'0 0.0
2018-Jun-20 01:29N 40°40' W 074°01'0 0.0
2018-Jun-20 00:59N 40°40' W 074°01'0 0.0
2018-Jun-20 00:29N 40°40' W 074°01'0 0.0
2018-Jun-19 23:59N 40°40' W 074°01'0 0.0
2018-Jun-19 23:29N 40°40' W 074°01'0 0.0
2018-Jun-19 22:59N 40°40' W 074°01'0 0.0
2018-Jun-19 22:29N 40°40' W 074°01'0 0.0
2018-Jun-19 21:59N 40°40' W 074°01'0 0.0
2018-Jun-19 21:29N 40°40' W 074°01'0 0.0
2018-Jun-19 20:59N 40°40' W 074°01'0 0.0
2018-Jun-19 20:29N 40°40' W 074°01'0 0.0
2018-Jun-19 19:59N 40°40' W 074°01'0 0.0
2018-Jun-19 19:26N 40°40' W 074°01'0 0.0
2018-Jun-19 18:59N 40°40' W 074°01'0 0.0
2018-Jun-19 18:29N 40°40' W 074°01'0 0.0
2018-Jun-19 17:59N 40°40' W 074°01'0 0.0
2018-Jun-19 17:29N 40°40' W 074°01'0 0.0
2018-Jun-19 16:59N 40°40' W 074°01'0 0.0
2018-Jun-19 16:29N 40°40' W 074°01'0 0.0
2018-Jun-19 15:59N 40°40' W 074°01'0 0.0
2018-Jun-19 15:29N 40°40' W 074°01'0 0.0
2018-Jun-19 14:59N 40°40' W 074°01'0 0.0
2018-Jun-19 14:29N 40°40' W 074°01'0 0.0
2018-Jun-19 13:59N 40°40' W 074°01'0 0.0
2018-Jun-19 13:29N 40°40' W 074°01'0 0.0
2018-Jun-19 12:59N 40°40' W 074°01'0 0.0
2018-Jun-19 12:29N 40°40' W 074°01'0 0.0
2018-Jun-19 11:59N 40°40' W 074°01'0 0.0
2018-Jun-19 11:26N 40°40' W 074°01'0 0.0
2018-Jun-19 10:59N 40°40' W 074°01'0 0.0
2018-Jun-19 10:29N 40°40' W 074°01'0 0.0
2018-Jun-19 09:59N 40°40' W 074°01'0 0.0
2018-Jun-19 09:29N 40°40' W 074°01'0 0.0
2018-Jun-19 08:59N 40°40' W 074°01'0 0.0
2018-Jun-19 08:29N 40°40' W 074°01'0 0.0
2018-Jun-19 07:59N 40°40' W 074°01'0 0.0
2018-Jun-19 07:29N 40°40' W 074°01'0 0.0
2018-Jun-19 06:59N 40°40' W 074°01'0 0.0
2018-Jun-19 06:29N 40°40' W 074°01'0 0.0
2018-Jun-19 05:59N 40°40' W 074°01'0 0.0
2018-Jun-19 05:29N 40°40' W 074°01'0 0.0
2018-Jun-19 04:59N 40°40' W 074°01'0 0.0
2018-Jun-19 04:29N 40°40' W 074°01'0 0.0
2018-Jun-19 03:59N 40°40' W 074°01'0 0.0
2018-Jun-19 03:26N 40°40' W 074°01'0 0.0
2018-Jun-19 02:59N 40°40' W 074°01'0 0.0
2018-Jun-19 02:29N 40°40' W 074°01'0 0.0
2018-Jun-19 01:59N 40°40' W 074°01'0 0.0
2018-Jun-19 01:29N 40°40' W 074°01'0 0.0
2018-Jun-19 00:59N 40°40' W 074°01'0 0.0
2018-Jun-19 00:29N 40°40' W 074°01'0 0.0
2018-Jun-18 23:59N 40°40' W 074°01'0 0.0
2018-Jun-18 23:29N 40°40' W 074°01'0 0.0
2018-Jun-18 22:59N 40°40' W 074°01'0 0.0
2018-Jun-18 22:29N 40°40' W 074°01'0 0.0
2018-Jun-18 21:59N 40°40' W 074°01'0 0.0
2018-Jun-18 21:29N 40°40' W 074°01'0 0.0
2018-Jun-18 20:59N 40°40' W 074°01'0 0.0
2018-Jun-18 20:29N 40°40' W 074°01'0 0.0
2018-Jun-18 19:59N 40°40' W 074°01'0 0.0
2018-Jun-18 19:29N 40°40' W 074°01'0 0.0
2018-Jun-18 18:59N 40°40' W 074°01'0 0.0
2018-Jun-18 18:29N 40°40' W 074°01'0 0.0
2018-Jun-18 17:59N 40°40' W 074°01'0 0.0
2018-Jun-18 17:26N 40°40' W 074°01'0 0.0
2018-Jun-18 16:59N 40°40' W 074°01'0 0.0
2018-Jun-18 16:29N 40°40' W 074°01'0 0.0
2018-Jun-18 15:59N 40°40' W 074°01'0 0.0
2018-Jun-18 15:29N 40°40' W 074°01'0 0.0
2018-Jun-18 14:59N 40°40' W 074°01'0 0.0
2018-Jun-18 14:29N 40°40' W 074°01'0 0.0
2018-Jun-18 13:59N 40°40' W 074°01'0 0.0
2018-Jun-18 13:29N 40°40' W 074°01'0 0.0
2018-Jun-18 12:59N 40°40' W 074°01'0 0.0
2018-Jun-18 12:29N 40°40' W 074°01'0 0.0
2018-Jun-18 11:59N 40°40' W 074°01'0 0.0
2018-Jun-18 11:29N 40°40' W 074°01'0 0.0
2018-Jun-18 10:59N 40°40' W 074°01'0 0.0
2018-Jun-18 10:29N 40°40' W 074°01'0 0.0
2018-Jun-18 09:59N 40°40' W 074°01'0 0.0
2018-Jun-18 09:29N 40°40' W 074°01'0 0.0
2018-Jun-18 08:59N 40°40' W 074°01'0 0.0
2018-Jun-18 08:29N 40°40' W 074°01'0 0.0
2018-Jun-18 07:59N 40°40' W 074°01'0 0.0
2018-Jun-18 07:29N 40°40' W 074°01'0 0.0
2018-Jun-18 06:59N 40°40' W 074°01'0 0.0
2018-Jun-18 06:29N 40°40' W 074°01'0 0.0
2018-Jun-18 05:59N 40°40' W 074°01'0 0.0
2018-Jun-18 05:29N 40°40' W 074°01'0 0.0
2018-Jun-18 04:59N 40°40' W 074°01'0 0.0
2018-Jun-18 04:29N 40°40' W 074°01'0 0.0
2018-Jun-18 03:59N 40°40' W 074°01'0 0.0
2018-Jun-18 03:29N 40°40' W 074°01'0 0.0
2018-Jun-18 02:59N 40°40' W 074°01'0 0.0
2018-Jun-18 02:29N 40°40' W 074°01'0 0.0
2018-Jun-18 01:59N 40°40' W 074°01'0 0.0
2018-Jun-18 01:29N 40°40' W 074°01'0 0.0
2018-Jun-18 00:59N 40°40' W 074°01'0 0.0
2018-Jun-18 00:29N 40°40' W 074°01'0 0.0
2018-Jun-17 23:59N 40°40' W 074°01'0 0.0
2018-Jun-17 23:29N 40°40' W 074°01'0 0.0
2018-Jun-17 22:59N 40°40' W 074°01'0 0.0
2018-Jun-17 22:29N 40°40' W 074°01'0 0.0
2018-Jun-17 21:59N 40°40' W 074°01'0 0.0
2018-Jun-17 21:29N 40°40' W 074°01'0 0.0
2018-Jun-17 20:59N 40°40' W 074°01'0 0.0
2018-Jun-17 20:26N 40°40' W 074°01'0 0.0
2018-Jun-17 19:59N 40°40' W 074°01'0 0.0
2018-Jun-17 19:20N 40°40' W 074°01'0 0.0
2018-Jun-17 18:59N 40°40' W 074°01'0 0.0
2018-Jun-17 18:26N 40°40' W 074°01'0 0.0
2018-Jun-17 17:59N 40°40' W 074°01'0 0.0
2018-Jun-17 17:29N 40°40' W 074°01'0 0.0
2018-Jun-17 16:50N 40°40' W 074°01'0 0.0
2018-Jun-17 16:29N 40°40' W 074°01'0 0.0
2018-Jun-17 15:59N 40°40' W 074°01'0 0.0
2018-Jun-17 15:26N 40°40' W 074°01'0 0.0
2018-Jun-17 14:58N 40°40' W 074°01'0 0.0
2018-Jun-17 14:26N 40°40' W 074°01'0 0.0
2018-Jun-17 13:59N 40°40' W 074°01'0 0.0
2018-Jun-17 13:29N 40°40' W 074°01'0 0.0
2018-Jun-16 23:34N 40°40' W 074°01'0 0.0
2018-Jun-16 23:28N 40°40' W 074°01'0 0.0
2018-Jun-16 22:58N 40°40' W 074°01'0 0.0
2018-Jun-16 22:28N 40°40' W 074°01'0 0.0
2018-Jun-16 21:58N 40°40' W 074°01'0 0.0
2018-Jun-16 21:28N 40°40' W 074°01'0 0.0
2018-Jun-16 20:58N 40°40' W 074°01'0 0.0
2018-Jun-16 20:28N 40°40' W 074°01'0 0.0
2018-Jun-16 19:58N 40°40' W 074°01'0 0.0
2018-Jun-16 19:28N 40°40' W 074°01'0 0.0
2018-Jun-16 18:58N 40°40' W 074°01'0 0.0
2018-Jun-16 18:28N 40°40' W 074°01'0 0.0
2018-Jun-16 17:58N 40°40' W 074°01'0 0.0
2018-Jun-16 17:28N 40°40' W 074°01'0 0.0
2018-Jun-16 16:58N 40°40' W 074°01'0 0.0
2018-Jun-16 16:28N 40°40' W 074°01'0 0.0
2018-Jun-16 15:58N 40°40' W 074°01'0 0.0
2018-Jun-16 15:28N 40°40' W 074°01'0 0.0
2018-Jun-16 14:58N 40°40' W 074°01'0 0.0
2018-Jun-16 14:28N 40°40' W 074°01'0 0.0
2018-Jun-16 13:58N 40°40' W 074°01'0 0.0
2018-Jun-16 13:28N 40°40' W 074°01'0 0.0
2018-Jun-16 12:58N 40°40' W 074°01'0 0.0
2018-Jun-16 12:28N 40°40' W 074°01'0 0.0
2018-Jun-16 11:58N 40°40' W 074°01'0 0.0
2018-Jun-16 11:28N 40°40' W 074°01'0 0.0
2018-Jun-16 10:58N 40°40' W 074°01'0 0.0
2018-Jun-16 10:28N 40°40' W 074°01'0 0.0
2018-Jun-16 09:58N 40°40' W 074°01'0 0.0
2018-Jun-16 09:28N 40°40' W 074°01'0 0.0
2018-Jun-16 08:58N 40°40' W 074°01'0 0.0
2018-Jun-16 08:28N 40°40' W 074°01'0 0.0
2018-Jun-16 07:58N 40°40' W 074°01'0 0.0
2018-Jun-16 07:28N 40°40' W 074°01'0 0.0
2018-Jun-16 06:58N 40°40' W 074°01'0 0.0
2018-Jun-16 06:28N 40°40' W 074°01'0 0.0
2018-Jun-16 05:58N 40°40' W 074°01'0 0.0
2018-Jun-16 05:28N 40°40' W 074°01'0 0.0
2018-Jun-16 04:58N 40°40' W 074°01'0 0.0
2018-Jun-16 04:28N 40°40' W 074°01'0 0.0
2018-Jun-16 03:58N 40°40' W 074°01'0 0.0
2018-Jun-16 03:28N 40°40' W 074°01'0 0.0
2018-Jun-16 02:58N 40°40' W 074°01'0 0.0
2018-Jun-16 02:28N 40°40' W 074°01'0 0.0
2018-Jun-16 01:58N 40°40' W 074°01'0 0.0
2018-Jun-16 01:28N 40°40' W 074°01'0 0.0
2018-Jun-16 00:58N 40°40' W 074°01'0 0.0
2018-Jun-16 00:28N 40°40' W 074°01'0 0.0
2018-Jun-15 23:58N 40°40' W 074°01'0 0.0
2018-Jun-15 23:28N 40°40' W 074°01'0 0.0
2018-Jun-15 22:58N 40°40' W 074°01'0 0.0
2018-Jun-15 22:28N 40°40' W 074°01'0 0.0
2018-Jun-15 21:58N 40°40' W 074°01'0 0.0
2018-Jun-15 21:28N 40°40' W 074°01'0 0.0
2018-Jun-15 20:58N 40°40' W 074°01'0 0.0
2018-Jun-15 20:28N 40°40' W 074°01'0 0.0
2018-Jun-15 19:58N 40°40' W 074°01'0 0.0
2018-Jun-15 19:28N 40°40' W 074°01'0 0.0
2018-Jun-15 18:58N 40°40' W 074°01'0 0.0
2018-Jun-15 18:28N 40°40' W 074°01'0 0.0
2018-Jun-15 17:58N 40°40' W 074°01'0 0.0
2018-Jun-15 17:28N 40°40' W 074°01'0 0.0
2018-Jun-15 16:58N 40°40' W 074°01'0 0.0
2018-Jun-15 16:28N 40°40' W 074°01'0 0.0
2018-Jun-15 15:58N 40°40' W 074°01'0 0.0
2018-Jun-15 15:28N 40°40' W 074°01'0 0.0
2018-Jun-15 14:58N 40°40' W 074°01'0 0.0
2018-Jun-15 14:28N 40°40' W 074°01'0 0.0
2018-Jun-15 13:58N 40°40' W 074°01'0 0.0
2018-Jun-15 13:28N 40°40' W 074°01'0 0.0
2018-Jun-15 12:58N 40°40' W 074°01'0 0.0
2018-Jun-15 12:28N 40°40' W 074°01'0 0.0
2018-Jun-15 11:58N 40°40' W 074°01'0 0.0
2018-Jun-15 11:28N 40°40' W 074°01'0 0.0
2018-Jun-15 10:58N 40°40' W 074°01'0 0.0
2018-Jun-15 10:28N 40°40' W 074°01'0 0.0
2018-Jun-15 09:58N 40°40' W 074°01'0 0.0
2018-Jun-15 09:28N 40°40' W 074°01'0 0.0
2018-Jun-15 08:58N 40°40' W 074°01'0 0.0
2018-Jun-15 08:28N 40°40' W 074°01'0 0.0
2018-Jun-15 07:58N 40°40' W 074°01'0 0.0
2018-Jun-15 07:28N 40°40' W 074°01'0 0.0
2018-Jun-15 06:58N 40°40' W 074°01'0 0.0
2018-Jun-15 06:25N 40°40' W 074°01'0 0.1
2018-Jun-15 05:59N 40°40' W 074°01'3 5.8
2018-Jun-15 05:30N 40°42' W 073°59'  
Track history (hours):
 
Tides and Currents Weather Stations Pressure Air Temp Water Temp Dewpoint Dewpoint Depression Visibility Wind Speed Wind Dir Waves Ship Positions

Dory

Owner: Greater NY Marine Transportation LLC, SYOSSET, NY. More information available from US FCC via Universal Licensing System and Coast Guard Vessel Documentation Center.

Last reported at 2018-Jun-25 04:49 UTC. Time now 2018-Jul-19 19:32 UTC.
Position N 40°40' W 074°01'.
Warning: this ship's position is 24 days out of date.

Length 24 m; draft 2.4 m.

Type: Tug. MMSI: 367605380.

Date/timePositionNaut miles runAvg speedWind from/ knotsBaromVisibWave heightAir tempDewpointWater temp
2018-Jun-25 04:49N 40°40' W 074°01'0 0.7
2018-Jun-25 04:30N 40°40' W 074°01'3 6.9
2018-Jun-25 04:00N 40°43' W 074°01'3 1.4
2018-Jun-25 01:52N 40°46' W 074°00'3 8.9
2018-Jun-25 01:30N 40°43' W 074°01'3 5.9
2018-Jun-25 00:59N 40°40' W 074°01'0 0.0
2018-Jun-25 00:29N 40°40' W 074°01'0 0.0
2018-Jun-25 00:00N 40°40' W 074°01'0 0.5
2018-Jun-24 23:30N 40°40' W 074°01'0 0.0
2018-Jun-24 23:00N 40°40' W 074°01'0 0.0
2018-Jun-24 22:30N 40°40' W 074°01'0 0.0
2018-Jun-24 22:00N 40°40' W 074°01'0 0.0
2018-Jun-24 21:30N 40°40' W 074°01'0 0.0
2018-Jun-24 21:00N 40°40' W 074°01'0 0.0
2018-Jun-24 20:30N 40°40' W 074°01'0 0.0
2018-Jun-24 20:00N 40°40' W 074°01'0 0.0
2018-Jun-24 19:30N 40°40' W 074°01'0 0.0
2018-Jun-24 19:00N 40°40' W 074°01'0 0.0
2018-Jun-24 18:30N 40°40' W 074°01'0 0.0
2018-Jun-24 18:00N 40°40' W 074°01'0 0.0
2018-Jun-24 17:30N 40°40' W 074°01'0 0.0
2018-Jun-24 16:54N 40°40' W 074°01'0 0.0
2018-Jun-24 16:30N 40°40' W 074°01'0 0.0
2018-Jun-24 16:00N 40°40' W 074°01'0 0.0
2018-Jun-24 15:27N 40°40' W 074°01'  
2018-Jun-22 03:02N 40°40' W 074°01'0 0.0
2018-Jun-22 02:56N 40°40' W 074°01'0 0.0
2018-Jun-22 02:26N 40°40' W 074°01'0 0.0
2018-Jun-22 01:59N 40°40' W 074°01'0 0.0
2018-Jun-22 01:29N 40°40' W 074°01'0 0.0
2018-Jun-22 00:59N 40°40' W 074°01'0 0.0
2018-Jun-22 00:29N 40°40' W 074°01'0 0.0
2018-Jun-21 23:56N 40°40' W 074°01'0 0.0
2018-Jun-21 23:26N 40°40' W 074°01'0 0.0
2018-Jun-21 22:56N 40°40' W 074°01'0 0.0
2018-Jun-21 22:29N 40°40' W 074°01'0 0.0
2018-Jun-21 21:56N 40°40' W 074°01'0 0.0
2018-Jun-21 21:29N 40°40' W 074°01'0 0.0
2018-Jun-21 20:59N 40°40' W 074°01'0 0.0
2018-Jun-21 20:29N 40°40' W 074°01'0 0.0
2018-Jun-21 19:59N 40°40' W 074°01'0 0.0
2018-Jun-21 19:29N 40°40' W 074°01'1 1.2
2018-Jun-21 19:00N 40°40' W 074°01'4 7.1
2018-Jun-21 18:30N 40°39' W 074°06'4 6.5
2018-Jun-21 17:56N 40°39' W 074°10'0 0.0
2018-Jun-21 01:12N 40°39' W 074°10'2 8.9
2018-Jun-21 00:59N 40°39' W 074°08'4 8.8
2018-Jun-21 00:30N 40°40' W 074°03'3 6.0
2018-Jun-21 00:00N 40°42' W 073°60'4 0.2
2018-Jun-20 07:46N 40°46' W 073°57'2 5.9
2018-Jun-20 07:28N 40°44' W 073°58'2 4.8
2018-Jun-20 07:00N 40°42' W 073°60'3 6.8
2018-Jun-20 06:30N 40°40' W 074°03'5 6.0
2018-Jun-20 05:45N 40°39' W 074°09'1 0.3
2018-Jun-20 04:02N 40°39' W 074°09'0 0.2
2018-Jun-20 03:59N 40°39' W 074°09'1 1.3
2018-Jun-20 03:29N 40°38' W 074°09'3 6.6
2018-Jun-20 03:00N 40°39' W 074°05'3 6.6
2018-Jun-20 02:29N 40°40' W 074°01'0 0.0
2018-Jun-20 01:59N 40°40' W 074°01'0 0.0
2018-Jun-20 01:29N 40°40' W 074°01'0 0.0
2018-Jun-20 00:59N 40°40' W 074°01'0 0.0
2018-Jun-20 00:29N 40°40' W 074°01'0 0.0
2018-Jun-19 23:59N 40°40' W 074°01'0 0.0
2018-Jun-19 23:29N 40°40' W 074°01'0 0.0
2018-Jun-19 22:59N 40°40' W 074°01'0 0.0
2018-Jun-19 22:29N 40°40' W 074°01'0 0.0
2018-Jun-19 21:59N 40°40' W 074°01'0 0.0
2018-Jun-19 21:29N 40°40' W 074°01'0 0.0
2018-Jun-19 20:59N 40°40' W 074°01'0 0.0
2018-Jun-19 20:29N 40°40' W 074°01'0 0.0
2018-Jun-19 19:59N 40°40' W 074°01'0 0.0
2018-Jun-19 19:26N 40°40' W 074°01'0 0.0
2018-Jun-19 18:59N 40°40' W 074°01'0 0.0
2018-Jun-19 18:29N 40°40' W 074°01'0 0.0
2018-Jun-19 17:59N 40°40' W 074°01'0 0.0
2018-Jun-19 17:29N 40°40' W 074°01'0 0.0
2018-Jun-19 16:59N 40°40' W 074°01'0 0.0
2018-Jun-19 16:29N 40°40' W 074°01'0 0.0
2018-Jun-19 15:59N 40°40' W 074°01'0 0.0
2018-Jun-19 15:29N 40°40' W 074°01'0 0.0
2018-Jun-19 14:59N 40°40' W 074°01'0 0.0
2018-Jun-19 14:29N 40°40' W 074°01'0 0.0
2018-Jun-19 13:59N 40°40' W 074°01'0 0.0
2018-Jun-19 13:29N 40°40' W 074°01'0 0.0
2018-Jun-19 12:59N 40°40' W 074°01'0 0.0
2018-Jun-19 12:29N 40°40' W 074°01'0 0.0
2018-Jun-19 11:59N 40°40' W 074°01'0 0.0
2018-Jun-19 11:26N 40°40' W 074°01'0 0.0
2018-Jun-19 10:59N 40°40' W 074°01'0 0.0
2018-Jun-19 10:29N 40°40' W 074°01'0 0.0
2018-Jun-19 09:59N 40°40' W 074°01'0 0.0
2018-Jun-19 09:29N 40°40' W 074°01'0 0.0
2018-Jun-19 08:59N 40°40' W 074°01'0 0.0
2018-Jun-19 08:29N 40°40' W 074°01'0 0.0
2018-Jun-19 07:59N 40°40' W 074°01'0 0.0
2018-Jun-19 07:29N 40°40' W 074°01'0 0.0
2018-Jun-19 06:59N 40°40' W 074°01'0 0.0
2018-Jun-19 06:29N 40°40' W 074°01'0 0.0
2018-Jun-19 05:59N 40°40' W 074°01'0 0.0
2018-Jun-19 05:29N 40°40' W 074°01'0 0.0
2018-Jun-19 04:59N 40°40' W 074°01'0 0.0
2018-Jun-19 04:29N 40°40' W 074°01'0 0.0
2018-Jun-19 03:59N 40°40' W 074°01'0 0.0
2018-Jun-19 03:26N 40°40' W 074°01'0 0.0
2018-Jun-19 02:59N 40°40' W 074°01'0 0.0
2018-Jun-19 02:29N 40°40' W 074°01'0 0.0
2018-Jun-19 01:59N 40°40' W 074°01'0 0.0
2018-Jun-19 01:29N 40°40' W 074°01'0 0.0
2018-Jun-19 00:59N 40°40' W 074°01'0 0.0
2018-Jun-19 00:29N 40°40' W 074°01'0 0.0
2018-Jun-18 23:59N 40°40' W 074°01'0 0.0
2018-Jun-18 23:29N 40°40' W 074°01'0 0.0
2018-Jun-18 22:59N 40°40' W 074°01'0 0.0
2018-Jun-18 22:29N 40°40' W 074°01'0 0.0
2018-Jun-18 21:59N 40°40' W 074°01'0 0.0
2018-Jun-18 21:29N 40°40' W 074°01'0 0.0
2018-Jun-18 20:59N 40°40' W 074°01'0 0.0
2018-Jun-18 20:29N 40°40' W 074°01'0 0.0
2018-Jun-18 19:59N 40°40' W 074°01'0 0.0
2018-Jun-18 19:29N 40°40' W 074°01'0 0.0
2018-Jun-18 18:59N 40°40' W 074°01'0 0.0
2018-Jun-18 18:29N 40°40' W 074°01'0 0.0
2018-Jun-18 17:59N 40°40' W 074°01'0 0.0
2018-Jun-18 17:26N 40°40' W 074°01'0 0.0
2018-Jun-18 16:59N 40°40' W 074°01'0 0.0
2018-Jun-18 16:29N 40°40' W 074°01'0 0.0
2018-Jun-18 15:59N 40°40' W 074°01'0 0.0
2018-Jun-18 15:29N 40°40' W 074°01'0 0.0
2018-Jun-18 14:59N 40°40' W 074°01'0 0.0
2018-Jun-18 14:29N 40°40' W 074°01'0 0.0
2018-Jun-18 13:59N 40°40' W 074°01'0 0.0
2018-Jun-18 13:29N 40°40' W 074°01'0 0.0
2018-Jun-18 12:59N 40°40' W 074°01'0 0.0
2018-Jun-18 12:29N 40°40' W 074°01'0 0.0
2018-Jun-18 11:59N 40°40' W 074°01'0 0.0
2018-Jun-18 11:29N 40°40' W 074°01'0 0.0
2018-Jun-18 10:59N 40°40' W 074°01'0 0.0
2018-Jun-18 10:29N 40°40' W 074°01'0 0.0
2018-Jun-18 09:59N 40°40' W 074°01'0 0.0
2018-Jun-18 09:29N 40°40' W 074°01'0 0.0
2018-Jun-18 08:59N 40°40' W 074°01'0 0.0
2018-Jun-18 08:29N 40°40' W 074°01'0 0.0
2018-Jun-18 07:59N 40°40' W 074°01'0 0.0
2018-Jun-18 07:29N 40°40' W 074°01'0 0.0
2018-Jun-18 06:59N 40°40' W 074°01'0 0.0
2018-Jun-18 06:29N 40°40' W 074°01'0 0.0
2018-Jun-18 05:59N 40°40' W 074°01'0 0.0
2018-Jun-18 05:29N 40°40' W 074°01'0 0.0
2018-Jun-18 04:59N 40°40' W 074°01'0 0.0
2018-Jun-18 04:29N 40°40' W 074°01'0 0.0
2018-Jun-18 03:59N 40°40' W 074°01'0 0.0
2018-Jun-18 03:29N 40°40' W 074°01'0 0.0
2018-Jun-18 02:59N 40°40' W 074°01'0 0.0
2018-Jun-18 02:29N 40°40' W 074°01'0 0.0
2018-Jun-18 01:59N 40°40' W 074°01'0 0.0
2018-Jun-18 01:29N 40°40' W 074°01'0 0.0
2018-Jun-18 00:59N 40°40' W 074°01'0 0.0
2018-Jun-18 00:29N 40°40' W 074°01'0 0.0
2018-Jun-17 23:59N 40°40' W 074°01'0 0.0
2018-Jun-17 23:29N 40°40' W 074°01'0 0.0
2018-Jun-17 22:59N 40°40' W 074°01'0 0.0
2018-Jun-17 22:29N 40°40' W 074°01'0 0.0
2018-Jun-17 21:59N 40°40' W 074°01'0 0.0
2018-Jun-17 21:29N 40°40' W 074°01'0 0.0
2018-Jun-17 20:59N 40°40' W 074°01'0 0.0
2018-Jun-17 20:26N 40°40' W 074°01'0 0.0
2018-Jun-17 19:59N 40°40' W 074°01'0 0.0
2018-Jun-17 19:20N 40°40' W 074°01'0 0.0
2018-Jun-17 18:59N 40°40' W 074°01'0 0.0
2018-Jun-17 18:26N 40°40' W 074°01'0 0.0
2018-Jun-17 17:59N 40°40' W 074°01'0 0.0
2018-Jun-17 17:29N 40°40' W 074°01'0 0.0
2018-Jun-17 16:50N 40°40' W 074°01'0 0.0
2018-Jun-17 16:29N 40°40' W 074°01'0 0.0
2018-Jun-17 15:59N 40°40' W 074°01'0 0.0
2018-Jun-17 15:26N 40°40' W 074°01'0 0.0
2018-Jun-17 14:58N 40°40' W 074°01'0 0.0
2018-Jun-17 14:26N 40°40' W 074°01'0 0.0
2018-Jun-17 13:59N 40°40' W 074°01'0 0.0
2018-Jun-17 13:29N 40°40' W 074°01'0 0.0
2018-Jun-16 23:34N 40°40' W 074°01'0 0.0
2018-Jun-16 23:28N 40°40' W 074°01'0 0.0
2018-Jun-16 22:58N 40°40' W 074°01'0 0.0
2018-Jun-16 22:28N 40°40' W 074°01'0 0.0
2018-Jun-16 21:58N 40°40' W 074°01'0 0.0
2018-Jun-16 21:28N 40°40' W 074°01'0 0.0
2018-Jun-16 20:58N 40°40' W 074°01'0 0.0
2018-Jun-16 20:28N 40°40' W 074°01'0 0.0
2018-Jun-16 19:58N 40°40' W 074°01'0 0.0
2018-Jun-16 19:28N 40°40' W 074°01'0 0.0
2018-Jun-16 18:58N 40°40' W 074°01'0 0.0
2018-Jun-16 18:28N 40°40' W 074°01'0 0.0
2018-Jun-16 17:58N 40°40' W 074°01'0 0.0
2018-Jun-16 17:28N 40°40' W 074°01'0 0.0
2018-Jun-16 16:58N 40°40' W 074°01'0 0.0
2018-Jun-16 16:28N 40°40' W 074°01'0 0.0
2018-Jun-16 15:58N 40°40' W 074°01'0 0.0
2018-Jun-16 15:28N 40°40' W 074°01'0 0.0
2018-Jun-16 14:58N 40°40' W 074°01'0 0.0
2018-Jun-16 14:28N 40°40' W 074°01'0 0.0
2018-Jun-16 13:58N 40°40' W 074°01'0 0.0
2018-Jun-16 13:28N 40°40' W 074°01'0 0.0
2018-Jun-16 12:58N 40°40' W 074°01'0 0.0
2018-Jun-16 12:28N 40°40' W 074°01'0 0.0
2018-Jun-16 11:58N 40°40' W 074°01'0 0.0
2018-Jun-16 11:28N 40°40' W 074°01'0 0.0
2018-Jun-16 10:58N 40°40' W 074°01'0 0.0
2018-Jun-16 10:28N 40°40' W 074°01'0 0.0
2018-Jun-16 09:58N 40°40' W 074°01'0 0.0
2018-Jun-16 09:28N 40°40' W 074°01'0 0.0
2018-Jun-16 08:58N 40°40' W 074°01'0 0.0
2018-Jun-16 08:28N 40°40' W 074°01'0 0.0
2018-Jun-16 07:58N 40°40' W 074°01'0 0.0
2018-Jun-16 07:28N 40°40' W 074°01'0 0.0
2018-Jun-16 06:58N 40°40' W 074°01'0 0.0
2018-Jun-16 06:28N 40°40' W 074°01'0 0.0
2018-Jun-16 05:58N 40°40' W 074°01'0 0.0
2018-Jun-16 05:28N 40°40' W 074°01'0 0.0
2018-Jun-16 04:58N 40°40' W 074°01'0 0.0
2018-Jun-16 04:28N 40°40' W 074°01'0 0.0
2018-Jun-16 03:58N 40°40' W 074°01'0 0.0
2018-Jun-16 03:28N 40°40' W 074°01'0 0.0
2018-Jun-16 02:58N 40°40' W 074°01'0 0.0
2018-Jun-16 02:28N 40°40' W 074°01'0 0.0
2018-Jun-16 01:58N 40°40' W 074°01'0 0.0
2018-Jun-16 01:28N 40°40' W 074°01'0 0.0
2018-Jun-16 00:58N 40°40' W 074°01'0 0.0
2018-Jun-16 00:28N 40°40' W 074°01'0 0.0
2018-Jun-15 23:58N 40°40' W 074°01'0 0.0
2018-Jun-15 23:28N 40°40' W 074°01'0 0.0
2018-Jun-15 22:58N 40°40' W 074°01'0 0.0
2018-Jun-15 22:28N 40°40' W 074°01'0 0.0
2018-Jun-15 21:58N 40°40' W 074°01'0 0.0
2018-Jun-15 21:28N 40°40' W 074°01'0 0.0
2018-Jun-15 20:58N 40°40' W 074°01'0 0.0
2018-Jun-15 20:28N 40°40' W 074°01'0 0.0
2018-Jun-15 19:58N 40°40' W 074°01'0 0.0
2018-Jun-15 19:28N 40°40' W 074°01'0 0.0
2018-Jun-15 18:58N 40°40' W 074°01'0 0.0
2018-Jun-15 18:28N 40°40' W 074°01'0 0.0
2018-Jun-15 17:58N 40°40' W 074°01'0 0.0
2018-Jun-15 17:28N 40°40' W 074°01'0 0.0
2018-Jun-15 16:58N 40°40' W 074°01'0 0.0
2018-Jun-15 16:28N 40°40' W 074°01'0 0.0
2018-Jun-15 15:58N 40°40' W 074°01'0 0.0
2018-Jun-15 15:28N 40°40' W 074°01'0 0.0
2018-Jun-15 14:58N 40°40' W 074°01'0 0.0
2018-Jun-15 14:28N 40°40' W 074°01'0 0.0
2018-Jun-15 13:58N 40°40' W 074°01'0 0.0
2018-Jun-15 13:28N 40°40' W 074°01'0 0.0
2018-Jun-15 12:58N 40°40' W 074°01'0 0.0
2018-Jun-15 12:28N 40°40' W 074°01'0 0.0
2018-Jun-15 11:58N 40°40' W 074°01'0 0.0
2018-Jun-15 11:28N 40°40' W 074°01'0 0.0
2018-Jun-15 10:58N 40°40' W 074°01'0 0.0
2018-Jun-15 10:28N 40°40' W 074°01'0 0.0
2018-Jun-15 09:58N 40°40' W 074°01'0 0.0
2018-Jun-15 09:28N 40°40' W 074°01'0 0.0
2018-Jun-15 08:58N 40°40' W 074°01'0 0.0
2018-Jun-15 08:28N 40°40' W 074°01'0 0.0
2018-Jun-15 07:58N 40°40' W 074°01'0 0.0
2018-Jun-15 07:28N 40°40' W 074°01'0 0.0
2018-Jun-15 06:58N 40°40' W 074°01'0 0.0
2018-Jun-15 06:25N 40°40' W 074°01'0 0.1
2018-Jun-15 05:59N 40°40' W 074°01'3 5.8
2018-Jun-15 05:30N 40°42' W 073°59'  

Dump ship's entire track history